• Join FlightAware (Why Join?)
  • Login
  • US Flag 
08:49AM EDT


 

Airport Tracker/Info


-or-


 

Live Flight TrackerFlight Track Log ✈ DAL3794 ✈ 17-Oct-2013 ✈ KDTW - KEVV

Flight Track Log - Related Links

Times and Time Zones

All times are in EDT time to prevent confusion due to time zone crossing. See the DAL3794 flight status page for this flight to view local times or setup timezone preferences in your user account.

Time Position Orientation Groundspeed Altitude Reporting Facility
EDT Latitude Longitude Course Direction KTS MPH feet Rate Location/Type
08:38PM 42.1964 -83.3572 185° South 179 206 1,600  Level Cleveland Center
08:39PM 42.1697 -83.3606 185° South 183 211 3,000 2,640 Climbing Cleveland Center
08:39PM 42.1581 -83.3631 189° South 202 232 3,500 1,980 Climbing Cleveland Center
08:40PM 42.1058 -83.3678 184° South 219 252 5,100 2,100 Climbing Cleveland Center
08:40PM 42.0819 -83.3722 188° South 267 307 5,900 2,580 Climbing Cleveland Center
08:41PM 42.0297 -83.3797 186° South 268 308 7,800 2,460 Climbing Cleveland Center
08:41PM 42.0183 -83.3828 191° South 273 314 8,200 2,460 Climbing Cleveland Center
08:42PM 41.9428 -83.4136 197° South 278 320 10,400 1,260 Climbing Cleveland Center
08:43PM 41.8581 -83.4650 204° Southwest 326 375 10,800 720 Climbing Cleveland Center
08:44PM 41.7614 -83.5211 203° Southwest 371 427 11,900 1,200 Climbing Cleveland Center
08:45PM 41.6625 -83.5747 202° Southwest 382 440 13,300 1,440 Climbing Cleveland Center
08:46PM 41.5578 -83.6042 192° South 386 444 14,900 1,260 Climbing Cleveland Center
08:47PM 41.4539 -83.6372 193° South 385 443 16,000 1,080 Climbing Cleveland Center
08:48PM 41.3419 -83.7169 208° Southwest 380 437 17,200 1,080 Climbing Cleveland Center
08:49PM 41.2486 -83.7831 208° Southwest 380 437 18,300 960 Climbing Cleveland Center
08:50PM 41.1556 -83.8517 209° Southwest 381 438 19,300 960 Climbing Cleveland Center
08:51PM 41.0903 -83.8989 209° Southwest 379 436 20,000 960 Climbing Indianapolis Center
08:52PM 41.0017 -83.9625 208° Southwest 374 430 21,000 960 Climbing Indianapolis Center
08:53PM 40.9106 -84.0278 208° Southwest 374 430 22,000 960 Climbing Indianapolis Center
08:54PM 40.8333 -84.1150 221° Southwest 372 428 23,000 960 Climbing Indianapolis Center
08:55PM 40.7639 -84.2050 224° Southwest 355 409 24,000 1,020 Climbing Indianapolis Center
08:56PM 40.6819 -84.3094 224° Southwest 344 396 25,200 960 Climbing Indianapolis Center
08:57PM 40.6150 -84.3964 225° Southwest 339 390 26,000 360 Climbing Indianapolis Center
08:58PM 40.5467 -84.4847 225° Southwest 345 397 26,000  Level Indianapolis Center
08:59PM 40.4739 -84.5781 224° Southwest 363 418 26,000  Level Indianapolis Center
09:00PM 40.3986 -84.6725 224° Southwest 374 430 26,000  Level Indianapolis Center
09:01PM 40.3233 -84.7683 224° Southwest 377 434 26,000  Level Indianapolis Center
09:02PM 40.2472 -84.8661 224° Southwest 383 441 26,000  Level Indianapolis Center
09:03PM 40.1650 -84.9697 224° Southwest 388 447 26,000  Level Indianapolis Center
09:04PM 40.0869 -85.0669 224° Southwest 388 447 26,000  Level Indianapolis Center
09:05PM 40.0081 -85.1653 224° Southwest 390 449 26,000  Level Indianapolis Center
09:06PM 39.9147 -85.2825 224° Southwest 389 448 26,000  Level Indianapolis Center
09:07PM 39.8356 -85.3800 223° Southwest 391 450 26,000  Level Indianapolis Center
09:08PM 39.7572 -85.4761 223° Southwest 388 447 26,000  Level Indianapolis Center
09:09PM 39.6792 -85.5736 224° Southwest 389 448 26,000 -420 Level Indianapolis Center
09:10PM 39.6006 -85.6697 223° Southwest 388 447 25,200 -1,200 Descending Indianapolis Center
09:11PM 39.5147 -85.7758 224° Southwest 402 463 23,600 -1,080 Descending Indianapolis Center
09:13PM 39.4369 -85.8703 223° Southwest 400 460 23,000 -300 Descending Indianapolis Center
09:14PM 39.3567 -85.9692 224° Southwest 398 458 23,000  Level Indianapolis Center
09:15PM 39.2775 -86.0664 224° Southwest 393 452 23,000  Level Indianapolis Center
09:16PM 39.1972 -86.1625 223° Southwest 392 451 23,000  Level Indianapolis Center
09:17PM 39.1019 -86.2783 223° Southwest 392 451 23,000 -540 Level Indianapolis Center
09:18PM 39.0219 -86.3744 223° Southwest 394 453 22,000 -1,020 Descending Indianapolis Center
09:19PM 38.9417 -86.4700 223° Southwest 394 453 21,000 -1,020 Descending Indianapolis Center
09:20PM 38.8586 -86.5703 223° Southwest 388 447 20,000 -1,020 Descending Indianapolis Center
09:21PM 38.7789 -86.6639 222° Southwest 387 445 19,000 -1,020 Descending Indianapolis Center
09:22PM 38.6994 -86.7578 223° Southwest 387 445 18,000 -960 Descending Indianapolis Center
09:23PM 38.6208 -86.8522 223° Southwest 387 445 17,100 -1,080 Descending Indianapolis Center
09:24PM 38.5614 -86.9575 234° Southwest 366 421 15,800 -2,160 Descending Indianapolis Center
09:26PM 38.4325 -87.1331 227° Southwest 336 387 10,500 -2,340 Descending Indianapolis Center
09:27PM 38.3742 -87.1933 219° Southwest 276 318 8,800 -1,800 Descending Indianapolis Center
09:28PM 38.3022 -87.2639 218° Southwest 275 316 6,900 -1,620 Descending Indianapolis Center
09:29PM 38.2478 -87.3183 218° Southwest 256 295 5,600 -1,320 Descending Indianapolis Center
09:30PM 38.1958 -87.3725 219° Southwest 248 285 4,200 -1,320 Descending Indianapolis Center
09:31PM 38.1467 -87.4194 217° Southwest 235 270 3,000 -1,140 Descending Indianapolis Center
09:32PM 38.1019 -87.4642 218° Southwest 219 252 1,900 -960 Descending Indianapolis Center
09:33PM 38.0700 -87.4967 219° Southwest 174 200 1,100 -600 Descending Indianapolis Center
09:34PM 38.0414 -87.5267 220° Southwest 163 188 800 -300 Descending Indianapolis Center
09:36PM 38.0333 -87.5167 218° Southwest  Level FlightAware Approximate
09:43PM 38.0384 -87.5309 218° Southwest  Level Estimated
09:44PM 38.0384 -87.5309 218° Southwest  Level Estimated